CW5193 New Chelsea NF CA current weather conditions

sailwx.info

Wind from 044 at 5 knots gusting 8

Air temperature 15.6° C
Dewpoint 14.9° C

Last reported at 2015-Sep-01 21:53 UTC.
Time now 2015-Sep-01 22:26 UTC

Location: N 48°02' W 053°13'.
View on Google Maps.

See reports from other nearby stations

  
Tides and Currents Weather Stations Pressure Air Temp Water Temp Dewpoint Dewpoint Depression Visibility Wind Speed Wind Dir Waves Ship Positions
date/time (UTC)wind fromknots sea level pressurealtimeterstation pressurevisibilityair tempwater tempwave heightnotes
2015-Sep-01 21:53 044 5 gusting 8 15.6
2015-Sep-01 21:42 036 3 gusting 8 15.6
2015-Sep-01 21:23 021 5 gusting 9 15.6
2015-Sep-01 21:12 037 6 gusting 12 15.6
2015-Sep-01 21:02 018 8 gusting 12 15.6
2015-Sep-01 20:52 036 8 gusting 10 16.1
2015-Sep-01 20:43 037 6 gusting 9 16.1
2015-Sep-01 20:32 032 6 gusting 8 15.6
2015-Sep-01 20:23 042 5 gusting 9 16.1
2015-Sep-01 20:12 045 6 gusting 9 15.6
2015-Sep-01 20:02 030 7 gusting 11 15.6
2015-Sep-01 19:52 036 5 gusting 8 16.1
2015-Sep-01 19:33 018 4 gusting 10 16.7
2015-Sep-01 19:03 082 9 gusting 13 17.8
2015-Sep-01 18:53 085 12 gusting 13 17.8
2015-Sep-01 18:42 062 8 gusting 9 17.2
2015-Sep-01 18:33 045 4 gusting 6 17.8
2015-Sep-01 18:23 049 4 gusting 7 17.8
2015-Sep-01 18:12 090 5 gusting 8 17.8
2015-Sep-01 18:02 065 7 gusting 10 17.8
2015-Sep-01 17:53 082 7 gusting 9 17.2
2015-Sep-01 17:42 063 7 gusting 10 17.2
2015-Sep-01 17:33 049 7 gusting 12 16.7
2015-Sep-01 17:23 069 10 gusting 13 17.2
2015-Sep-01 17:12 059 8 gusting 12 16.7
2015-Sep-01 17:03 034 6 gusting 10 16.7
2015-Sep-01 16:53 055 6 gusting 10 17.2
2015-Sep-01 16:42 071 8 gusting 13 17.2
2015-Sep-01 16:33 061 7 gusting 9 17.2
2015-Sep-01 16:23 045 6 gusting 9 17.2
2015-Sep-01 16:12 045 6 gusting 11 17.2
2015-Sep-01 16:03 027 6 gusting 10 18.3
2015-Sep-01 15:53 045 8 gusting 10 18.3
2015-Sep-01 15:42 032 6 gusting 9 17.8
2015-Sep-01 15:33 037 9 gusting 10 18.3
2015-Sep-01 15:23 039 6 gusting 8 18.3
2015-Sep-01 15:12 057 7 gusting 9 19.4
2015-Sep-01 15:03 034 5 gusting 6 20.6
2015-Sep-01 14:52 192 20.6
2015-Sep-01 14:43 192 1 gusting 4 20.6
2015-Sep-01 14:32 200 3 gusting 8 20.6
2015-Sep-01 14:23 210 4 gusting 10 20.0
2015-Sep-01 14:12 190 3 gusting 10 20.0
2015-Sep-01 14:03 189 4 gusting 11 20.0
2015-Sep-01 13:53 174 4 gusting 13 18.9
2015-Sep-01 13:42 203 7 gusting 11 18.9
2015-Sep-01 13:33 190 7 gusting 11 18.3
2015-Sep-01 13:22 177 0 gusting 5 18.3
2015-Sep-01 13:13 175 0 gusting 7 17.8
2015-Sep-01 13:03 144 5 gusting 9 17.8
2015-Sep-01 12:53 119 2 gusting 10 18.3
2015-Sep-01 12:42 116 4 gusting 9 18.3
2015-Sep-01 12:33 192 4 gusting 9 18.3
2015-Sep-01 12:22 191 2 gusting 12 17.8
2015-Sep-01 12:13 148 8 gusting 12 17.8
2015-Sep-01 12:03 155 3 gusting 12 17.8
2015-Sep-01 11:53 163 4 gusting 12 17.8
2015-Sep-01 11:43 141 4 gusting 10 17.8
2015-Sep-01 11:32 155 6 gusting 11 17.8
2015-Sep-01 11:23 180 9 gusting 13 17.8
2015-Sep-01 11:12 175 7 gusting 13 17.8
2015-Sep-01 11:03 193 9 gusting 15 17.2
2015-Sep-01 10:53 194 10 gusting 15 17.2
2015-Sep-01 10:42 188 8 gusting 15 17.2
2015-Sep-01 10:33 186 7 gusting 16 17.2
2015-Sep-01 10:22 169 9 gusting 17 17.2
2015-Sep-01 10:13 187 6 gusting 17 17.2
2015-Sep-01 10:03 180 7 gusting 13 17.2
2015-Sep-01 09:52 169 6 gusting 13 17.2
2015-Sep-01 09:42 187 4 gusting 12 17.2
2015-Sep-01 09:33 163 3 gusting 11 17.2
2015-Sep-01 09:22 178 6 gusting 11 17.8
2015-Sep-01 09:12 188 4 gusting 9 17.8
2015-Sep-01 09:03 175 6 gusting 10 17.8
2015-Sep-01 08:53 186 6 gusting 13 17.8
2015-Sep-01 08:42 191 6 gusting 13 17.8
2015-Sep-01 08:33 182 6 gusting 13 17.8
2015-Sep-01 08:22 169 9 gusting 13 17.8
2015-Sep-01 08:13 171 6 gusting 13 17.8
2015-Sep-01 08:02 169 4 gusting 11 17.8
2015-Sep-01 07:52 206 4 gusting 13 18.3
2015-Sep-01 07:43 199 7 gusting 13 18.3
2015-Sep-01 07:33 206 7 gusting 13 18.3
2015-Sep-01 07:22 200 8 gusting 14 18.3
2015-Sep-01 07:13 196 7 gusting 15 18.3
2015-Sep-01 07:02 225 10 gusting 16 18.3
2015-Sep-01 06:52 208 9 gusting 15 18.3
2015-Sep-01 06:42 218 7 gusting 17 18.3
2015-Sep-01 06:33 224 7 gusting 16 18.3
2015-Sep-01 06:23 219 10 gusting 15 18.3
2015-Sep-01 06:12 227 6 gusting 16 18.3
2015-Sep-01 06:03 162 9 gusting 14 18.3
2015-Sep-01 05:53 190 6 gusting 13 18.3
2015-Sep-01 05:43 212 8 gusting 14 18.3
2015-Sep-01 05:32 192 6 gusting 12 18.3
2015-Sep-01 05:23 238 6 gusting 13 18.3
2015-Sep-01 05:12 181 8 gusting 14 18.3
2015-Sep-01 05:03 167 6 gusting 13 18.3
2015-Sep-01 04:52 191 4 gusting 9 18.3
2015-Sep-01 04:43 180 5 gusting 11 17.8
2015-Sep-01 04:32 210 6 gusting 13 17.8
2015-Sep-01 04:23 200 6 gusting 11 17.8
2015-Sep-01 04:12 207 8 gusting 14 17.8
2015-Sep-01 04:02 236 4 gusting 13 17.8
2015-Sep-01 03:52 211 4 gusting 8 17.8
2015-Sep-01 03:43 191 5 gusting 7 17.8
2015-Sep-01 03:32 218 2 gusting 5 17.8
2015-Sep-01 03:23 207 2 gusting 7 17.8
2015-Sep-01 03:12 209 3 gusting 7 17.8
2015-Sep-01 03:02 199 6 gusting 8 17.8
2015-Sep-01 02:52 224 4 gusting 11 17.8
2015-Sep-01 02:43 215 3 gusting 9 18.3
2015-Sep-01 02:32 210 6 gusting 10 18.3
2015-Sep-01 02:23 207 6 gusting 13 18.3
2015-Sep-01 02:12 207 6 gusting 11 18.3
2015-Sep-01 02:02 223 6 gusting 12 18.3
2015-Sep-01 01:52 221 6 gusting 12 18.3
2015-Sep-01 01:43 227 8 gusting 16 18.3
2015-Sep-01 01:32 214 7 gusting 13 18.3
2015-Sep-01 01:23 203 6 gusting 13 17.8
2015-Sep-01 01:12 209 6 gusting 13 17.8
2015-Sep-01 01:03 214 7 gusting 13 17.8
2015-Sep-01 00:53 215 7 gusting 13 17.8
2015-Sep-01 00:42 213 6 gusting 13 17.8
2015-Sep-01 00:33 202 7 gusting 13 17.8
2015-Sep-01 00:22 205 6 gusting 14 17.8
2015-Sep-01 00:13 226 6 gusting 11 17.8
2015-Sep-01 00:02 211 6 gusting 12 17.8
2015-Aug-31 23:52 223 7 gusting 12 17.8
2015-Aug-31 23:43 209 9 gusting 13 17.8
2015-Aug-31 23:33 211 6 gusting 12 17.8
2015-Aug-31 23:22 223 4 gusting 7 17.2
2015-Aug-31 23:13 230 8 gusting 12 17.8
2015-Aug-31 23:02 259 6 gusting 8 17.8
2015-Aug-31 22:52 256 5 gusting 7 17.8
2015-Aug-31 22:42 229 3 gusting 6 18.3
2015-Aug-31 22:33 256 0 gusting 7 18.3
2015-Aug-31 22:22 243 3 gusting 9 18.9
2015-Aug-31 22:13 225 5 gusting 11 18.9
2015-Aug-31 22:02 198 6 gusting 13 18.9
2015-Aug-31 21:53 204 6 gusting 13 18.9
2015-Aug-31 21:42 211 6 gusting 10 18.9
2015-Aug-31 21:33 211 4 gusting 8 18.9
2015-Aug-31 21:22 216 3 gusting 8 18.9
2015-Aug-31 21:13 236 2 gusting 8 18.9
2015-Aug-31 21:03 218 6 gusting 12 18.9
2015-Aug-31 20:53 232 6 gusting 14 18.9
2015-Aug-31 20:43 258 11 gusting 16 19.4
2015-Aug-31 20:32 221 10 gusting 15 19.4
2015-Aug-31 20:23 230 6 gusting 13 19.4
2015-Aug-31 20:12 236 6 gusting 17 19.4
2015-Aug-31 20:02 225 6 gusting 15 19.4
2015-Aug-31 19:53 235 10 gusting 16 19.4
2015-Aug-31 19:42 244 6 gusting 12 20.0
2015-Aug-31 19:33 268 9 gusting 17 20.6
2015-Aug-31 19:22 246 10 gusting 16 20.6
2015-Aug-31 19:13 217 13 gusting 19 20.0
2015-Aug-31 19:02 222 9 gusting 18 20.0
2015-Aug-31 18:52 229 11 gusting 21 20.6
2015-Aug-31 18:43 241 11 gusting 20 20.6
2015-Aug-31 18:33 217 11 gusting 19 20.6
2015-Aug-31 18:22 231 12 gusting 22 20.6
2015-Aug-31 18:13 276 13 gusting 20 20.6
2015-Aug-31 18:02 246 12 gusting 19 21.1
2015-Aug-31 17:52 257 8 gusting 16 21.1
2015-Aug-31 17:43 207 9 gusting 18 21.1
2015-Aug-31 17:32 279 10 gusting 18 21.1
2015-Aug-31 17:22 213 14 gusting 19 21.7
2015-Aug-31 17:13 239 12 gusting 18 21.7
2015-Aug-31 17:02 269 11 gusting 19 21.1
2015-Aug-31 16:52 254 7 gusting 18 21.7
2015-Aug-31 16:43 231 11 gusting 19 21.1
2015-Aug-31 16:33 217 6 gusting 17 21.1
2015-Aug-31 16:22 271 11 gusting 17 21.1
2015-Aug-31 16:12 199 12 gusting 15 20.6
2015-Aug-31 16:03 219 10 gusting 15 20.0
2015-Aug-31 15:52 211 9 gusting 15 18.9
2015-Aug-31 15:43 207 12 gusting 18 18.9
2015-Aug-31 15:33 199 11 gusting 17 18.9
2015-Aug-31 15:22 202 13 gusting 19 18.9
2015-Aug-31 15:13 247 13 gusting 19 19.4
2015-Aug-31 15:02 227 11 gusting 19 19.4
2015-Aug-31 14:53 205 13 gusting 19 18.9
2015-Aug-31 14:43 203 13 gusting 23 18.9
2015-Aug-31 14:32 237 11 gusting 16 18.9
2015-Aug-31 14:23 223 11 gusting 16 18.9
2015-Aug-31 14:12 232 8 gusting 18 18.9
2015-Aug-31 14:02 230 7 gusting 17 18.9
2015-Aug-31 13:53 242 6 gusting 17 18.9
2015-Aug-31 13:42 217 8 gusting 17 19.4
2015-Aug-31 13:33 235 11 gusting 19 19.4
2015-Aug-31 13:22 223 5 gusting 13 19.4
2015-Aug-31 13:12 213 9 gusting 17 18.9
2015-Aug-31 13:03 245 9 gusting 15 18.9
2015-Aug-31 12:52 259 8 gusting 13 18.9
2015-Aug-31 12:43 241 5 gusting 15 18.9
2015-Aug-31 12:32 254 8 gusting 17 18.9
2015-Aug-31 12:23 221 11 gusting 14 19.4
2015-Aug-31 12:12 221 8 gusting 16 19.4
2015-Aug-31 12:02 225 5 gusting 14 18.9
2015-Aug-31 11:52 247 7 gusting 14 18.9
2015-Aug-31 11:43 226 9 gusting 18 18.9
2015-Aug-31 11:33 212 3 gusting 13 18.3
2015-Aug-31 11:22 221 8 gusting 13 18.3
2015-Aug-31 11:13 219 8 gusting 13 18.3
2015-Aug-31 11:03 199 7 gusting 11 17.8
2015-Aug-31 10:53 198 6 gusting 10 17.8
2015-Aug-31 10:42 224 5 gusting 10 17.8
2015-Aug-31 10:32 209 5 gusting 9 17.2
2015-Aug-31 10:23 193 5 gusting 11 17.2
2015-Aug-31 10:12 218 6 gusting 11 17.2
2015-Aug-31 10:02 225 5 gusting 10 17.2
2015-Aug-31 09:52 219 5 gusting 8 16.7
2015-Aug-31 09:43 217 3 gusting 6 16.7
2015-Aug-31 09:32 237 3 gusting 6 16.7
2015-Aug-31 09:23 233 4 gusting 8 16.1
2015-Aug-31 09:12 232 3 gusting 6 16.7
2015-Aug-31 09:03 223 4 gusting 7 16.7
2015-Aug-31 08:53 209 3 gusting 10 16.7
2015-Aug-31 08:43 218 6 gusting 13 16.7
2015-Aug-31 08:32 227 6 gusting 11 16.7
2015-Aug-31 08:23 246 5 gusting 12 16.7
2015-Aug-31 08:12 228 5 gusting 12 16.7
2015-Aug-31 08:03 240 5 gusting 11 16.7
2015-Aug-31 07:52 246 5 gusting 11 16.7
2015-Aug-31 07:43 237 6 gusting 11 16.7
2015-Aug-31 07:32 229 5 gusting 13 16.7
2015-Aug-31 07:23 238 6 gusting 10 16.7
2015-Aug-31 07:12 240 8 gusting 12 16.7
2015-Aug-31 07:02 233 6 gusting 12 16.7
2015-Aug-31 06:52 264 4 gusting 12 16.7
2015-Aug-31 06:42 240 6 gusting 10 16.7
2015-Aug-31 06:32 222 3 gusting 13 16.7
2015-Aug-31 06:23 227 5 gusting 10 16.7
2015-Aug-31 06:13 242 3 gusting 9 16.7
2015-Aug-31 06:03 229 5 gusting 7 16.7
2015-Aug-31 05:53 229 1 gusting 8 16.7
2015-Aug-31 05:42 252 4 gusting 7 16.7
2015-Aug-31 05:33 223 2 gusting 8 16.7
2015-Aug-31 05:22 227 4 gusting 11 16.7
2015-Aug-31 05:12 249 4 gusting 11 16.7
2015-Aug-31 05:03 221 5 gusting 13 16.7
2015-Aug-31 04:53 240 7 gusting 13 16.7
2015-Aug-31 04:42 245 6 gusting 12 16.7
2015-Aug-31 04:33 232 7 gusting 13 16.7
2015-Aug-31 04:22 233 7 gusting 12 16.7
2015-Aug-31 04:13 214 6 gusting 12 16.7
2015-Aug-31 04:02 241 5 gusting 10 16.7
2015-Aug-31 03:52 244 4 gusting 7 16.7
2015-Aug-31 03:42 265 7 gusting 10 16.7
2015-Aug-31 03:33 233 5 gusting 10 16.7
2015-Aug-31 03:22 199 3 gusting 10 16.7
2015-Aug-31 03:13 257 4 gusting 10 16.7
2015-Aug-31 03:02 240 6 gusting 10 16.7
2015-Aug-31 02:53 204 6 gusting 9 16.7
2015-Aug-31 02:42 206 5 gusting 9 16.7
2015-Aug-31 02:33 232 3 gusting 7 16.7
2015-Aug-31 02:23 236 3 gusting 6 16.7
2015-Aug-31 02:13 225 3 gusting 9 16.7
2015-Aug-31 02:02 223 4 gusting 11 16.7
2015-Aug-31 01:53 244 5 gusting 11 16.7
2015-Aug-31 01:42 219 6 gusting 10 16.7
2015-Aug-31 01:33 211 5 gusting 10 16.7
2015-Aug-31 01:22 207 5 gusting 9 16.7
2015-Aug-31 01:13 203 4 gusting 11 16.7
2015-Aug-31 01:02 227 6 gusting 10 16.7
2015-Aug-31 00:52 221 6 gusting 12 16.7